Weather at Tempe Airport [CLOSED]

Public forecast

Using degrees Fahrenheit for public forecast. Weather courtesy of forecast.io.

Closest aviation weather report (METAR) to Tempe Airport

Closest report is Phoenix Sky Harbor International Airport, 3.3 nm (6.1 km) NW.

2024/02/25 12:51 (retrieved 36 minutes ago)

KPHX 251251Z 13005KT 10SM FEW180 BKN200 BKN250 15/03 A3004 RMK AO2 SLP162 T01500033

Closest aviation forecast (TAF) to Tempe Airport

Closest forecast is Phoenix Sky Harbor International Airport, 3.3 nm (6.1 km) NW.

2024/02/25 12:39 (retrieved 48 minutes ago)

TAF KPHX 251136Z 2512/2618 10004KT P6SM FEW120 BKN180 FM252300 27005KT P6SM BKN180 FM260500 11005KT P6SM FEW120 BKN200